createdAt,value
2022-10-22T00:01:10.450Z,51.30
2022-10-22T00:03:40.669Z,51.28
2022-10-22T00:06:08.938Z,51.07
2022-10-22T00:08:36.868Z,50.94
2022-10-22T00:11:12.647Z,51.09
2022-10-22T00:13:40.847Z,50.94
2022-10-22T00:16:09.649Z,51.09
2022-10-22T00:18:38.201Z,51.30
2022-10-22T00:21:07.183Z,51.17
2022-10-22T00:23:35.493Z,50.99
2022-10-22T00:26:03.355Z,51.06
2022-10-22T00:28:31.406Z,50.97
2022-10-22T00:31:01.037Z,51.04
2022-10-22T00:33:30.443Z,51.30
2022-10-22T00:35:59.049Z,51.26
2022-10-22T00:38:26.891Z,51.22
2022-10-22T00:40:54.915Z,51.60
2022-10-22T00:43:23.029Z,51.77
2022-10-22T00:45:51.087Z,51.58
2022-10-22T00:48:22.189Z,51.75
2022-10-22T00:50:56.496Z,52.01
2022-10-22T00:53:36.825Z,51.76
2022-10-22T00:56:05.645Z,51.57
2022-10-22T00:58:37.316Z,51.53
2022-10-22T01:01:07.133Z,51.45
2022-10-22T01:03:34.947Z,51.50
2022-10-22T01:06:05.146Z,51.45
2022-10-22T01:08:51.322Z,51.53
2022-10-22T01:11:47.451Z,51.53
2022-10-22T01:14:20.231Z,51.45
2022-10-22T01:17:13.869Z,51.74
2022-10-22T01:20:07.882Z,51.84
2022-10-22T01:22:52.953Z,51.76
2022-10-22T01:25:44.476Z,52.09
2022-10-22T01:28:31.248Z,52.20
2022-10-22T01:31:01.056Z,52.13
2022-10-22T01:33:31.176Z,52.28
2022-10-22T01:36:00.420Z,52.44
2022-10-22T01:38:29.189Z,52.35
2022-10-22T01:40:58.199Z,52.44
2022-10-22T01:43:25.966Z,52.19
2022-10-22T01:45:59.249Z,52.47
2022-10-22T01:48:53.520Z,52.31
2022-10-22T01:51:49.597Z,52.13
2022-10-22T01:54:40.300Z,52.19
2022-10-22T01:57:27.249Z,52.37
2022-10-22T02:00:06.760Z,52.42
2022-10-22T02:03:05.942Z,52.44
2022-10-22T02:05:46.216Z,52.39
2022-10-22T02:08:20.246Z,52.57
2022-10-22T02:10:49.538Z,52.76
2022-10-22T02:13:28.368Z,53.01
2022-10-22T02:15:59.209Z,53.04
2022-10-22T02:18:30.000Z,53.09
2022-10-22T02:21:00.090Z,53.01
2022-10-22T02:23:29.005Z,52.96
2022-10-22T02:26:12.072Z,51.96
2022-10-22T02:28:49.929Z,50.39
2022-10-22T02:31:26.344Z,49.79
2022-10-22T02:33:58.113Z,48.95
2022-10-22T02:36:26.271Z,47.98
2022-10-22T02:38:54.970Z,47.13
2022-10-22T02:41:23.738Z,46.61
2022-10-22T02:43:54.743Z,46.19
2022-10-22T02:46:24.089Z,45.81
2022-10-22T02:48:51.944Z,45.34
2022-10-22T02:51:20.088Z,45.16
2022-10-22T02:53:47.852Z,45.03
2022-10-22T02:56:16.150Z,45.04
2022-10-22T02:58:43.942Z,44.85
2022-10-22T03:01:15.272Z,44.47
2022-10-22T03:03:44.107Z,44.32
2022-10-22T03:06:12.285Z,44.52
2022-10-22T03:08:40.672Z,44.44
2022-10-22T03:11:09.089Z,44.59
2022-10-22T03:13:37.139Z,44.67
2022-10-22T03:16:05.200Z,44.82
2022-10-22T03:18:32.993Z,45.04
2022-10-22T03:21:36.816Z,45.06
2022-10-22T03:24:10.718Z,45.26
2022-10-22T03:26:41.043Z,45.38
2022-10-22T03:29:11.469Z,45.50
2022-10-22T03:31:39.494Z,45.74
2022-10-22T03:34:07.338Z,45.86
2022-10-22T03:36:35.230Z,45.99
2022-10-22T03:39:04.831Z,45.78
2022-10-22T03:41:33.209Z,45.91
2022-10-22T03:44:03.263Z,46.11
2022-10-22T03:46:31.080Z,46.25
2022-10-22T03:48:59.241Z,46.22
2022-10-22T03:51:28.608Z,46.15
2022-10-22T03:53:56.492Z,46.13
2022-10-22T03:56:24.826Z,46.17
2022-10-22T03:58:57.041Z,46.18
2022-10-22T04:01:25.739Z,46.26
2022-10-22T04:03:54.107Z,46.32
2022-10-22T04:06:22.392Z,46.31
2022-10-22T04:08:50.541Z,46.58
2022-10-22T04:11:18.376Z,46.47
2022-10-22T04:13:46.430Z,46.54
2022-10-22T04:16:21.469Z,46.39
2022-10-22T04:18:51.058Z,46.25
2022-10-22T04:21:19.768Z,46.13
2022-10-22T04:23:50.031Z,46.14
2022-10-22T04:26:19.282Z,46.07
2022-10-22T04:28:49.591Z,46.16
2022-10-22T04:31:22.799Z,46.36
2022-10-22T04:33:55.863Z,46.11
2022-10-22T04:36:25.447Z,46.30
2022-10-22T04:38:56.066Z,46.37
2022-10-22T04:41:25.819Z,46.40
2022-10-22T04:43:55.140Z,46.37
2022-10-22T04:46:23.845Z,46.51
2022-10-22T04:48:52.274Z,46.55
2022-10-22T04:51:24.174Z,46.49
2022-10-22T04:53:52.418Z,46.51
2022-10-22T04:56:25.215Z,46.57
2022-10-22T04:58:59.423Z,46.49
2022-10-22T05:01:30.934Z,46.54
2022-10-22T05:04:01.048Z,46.50
2022-10-22T05:06:31.444Z,46.73
2022-10-22T05:09:05.813Z,46.68
2022-10-22T05:11:38.783Z,46.70
2022-10-22T05:14:07.792Z,46.74
2022-10-22T05:16:38.042Z,46.83
2022-10-22T05:19:07.528Z,46.81
2022-10-22T05:21:35.850Z,47.02
2022-10-22T05:24:04.197Z,46.89
2022-10-22T05:26:32.474Z,47.05
2022-10-22T05:29:00.296Z,47.10
2022-10-22T05:31:29.228Z,47.04
2022-10-22T05:33:57.233Z,47.18
2022-10-22T05:36:25.215Z,47.16
2022-10-22T05:38:53.280Z,47.13
2022-10-22T05:41:25.675Z,47.17
2022-10-22T05:43:58.427Z,47.03
2022-10-22T05:46:31.173Z,47.06
2022-10-22T05:49:02.293Z,47.16
2022-10-22T05:51:32.378Z,47.10
2022-10-22T05:54:02.541Z,47.04
2022-10-22T05:56:32.162Z,46.95
2022-10-22T05:59:00.960Z,46.81
2022-10-22T06:01:31.569Z,46.95
2022-10-22T06:04:01.976Z,47.02
2022-10-22T06:06:47.095Z,47.07
2022-10-22T06:12:09.204Z,47.05
2022-10-22T06:14:37.203Z,46.84
2022-10-22T06:17:05.281Z,46.87
2022-10-22T06:19:33.331Z,46.82
2022-10-22T06:22:01.045Z,46.81
2022-10-22T06:24:28.852Z,46.70
2022-10-22T06:26:56.711Z,46.80
2022-10-22T06:29:24.930Z,46.89
2022-10-22T06:31:52.768Z,46.79
2022-10-22T06:34:20.797Z,46.68
2022-10-22T06:36:48.664Z,46.67
2022-10-22T06:39:18.028Z,46.41
2022-10-22T06:41:46.966Z,46.41
2022-10-22T06:44:20.029Z,46.14
2022-10-22T06:46:52.413Z,46.52
2022-10-22T06:49:21.069Z,46.57
2022-10-22T06:51:53.766Z,46.16
2022-10-22T06:54:22.902Z,46.01
2022-10-22T06:56:51.051Z,46.09
2022-10-22T06:59:19.124Z,45.66
2022-10-22T07:01:47.227Z,45.72
2022-10-22T07:04:15.478Z,45.79
2022-10-22T07:06:43.642Z,45.42
2022-10-22T07:09:11.626Z,45.34
2022-10-22T07:11:45.581Z,45.19
2022-10-22T07:14:16.761Z,44.78
2022-10-22T07:16:46.813Z,44.96
2022-10-22T07:19:14.966Z,45.01
2022-10-22T07:21:42.931Z,44.95
2022-10-22T07:24:10.888Z,45.19
2022-10-22T07:26:39.041Z,44.92
2022-10-22T07:29:06.952Z,44.82
2022-10-22T07:31:35.257Z,44.89
2022-10-22T07:34:03.197Z,44.75
2022-10-22T07:36:31.230Z,44.90
2022-10-22T07:38:59.903Z,44.83
2022-10-22T07:41:30.385Z,44.92
2022-10-22T07:43:58.272Z,44.75
2022-10-22T07:46:26.730Z,44.78
2022-10-22T07:48:54.945Z,45.09
2022-10-22T07:51:23.084Z,44.94
2022-10-22T07:53:51.096Z,44.65
2022-10-22T07:56:18.907Z,44.79
2022-10-22T07:58:46.740Z,44.61
2022-10-22T08:01:14.591Z,44.35
2022-10-22T08:03:42.618Z,44.34
2022-10-22T08:06:13.818Z,44.31
2022-10-22T08:08:43.695Z,44.36
2022-10-22T08:11:11.712Z,44.21
2022-10-22T08:13:44.109Z,44.27
2022-10-22T08:16:13.975Z,44.13
2022-10-22T08:18:42.249Z,43.75
2022-10-22T08:21:11.636Z,43.76
2022-10-22T08:23:39.473Z,43.84
2022-10-22T08:26:07.369Z,43.94
2022-10-22T08:28:37.170Z,43.38
2022-10-22T08:31:07.963Z,43.58
2022-10-22T08:33:36.789Z,43.79
2022-10-22T08:36:05.477Z,43.87
2022-10-22T08:38:35.192Z,43.81
2022-10-22T08:41:13.519Z,43.94
2022-10-22T08:44:00.429Z,43.93
2022-10-22T08:46:46.548Z,43.85
2022-10-22T08:49:21.920Z,43.44
2022-10-22T08:51:49.717Z,43.37
2022-10-22T08:54:28.886Z,43.23
2022-10-22T08:57:09.017Z,43.67
2022-10-22T09:00:11.880Z,43.99
2022-10-22T09:03:07.527Z,43.50
2022-10-22T09:08:20.735Z,43.15
2022-10-22T09:11:06.142Z,43.08
2022-10-22T09:13:33.966Z,42.70
2022-10-22T09:16:12.146Z,42.38
2022-10-22T09:18:49.426Z,42.49
2022-10-22T09:21:33.129Z,42.52
2022-10-22T09:24:17.171Z,42.56
2022-10-22T09:26:45.145Z,42.72
2022-10-22T09:29:20.464Z,42.97
2022-10-22T09:31:48.261Z,42.95
2022-10-22T09:34:21.458Z,42.74
2022-10-22T09:36:58.900Z,42.44
2022-10-22T09:39:34.720Z,42.49
2022-10-22T09:42:02.863Z,41.95
2022-10-22T09:44:35.099Z,42.05
2022-10-22T09:47:08.222Z,41.98
2022-10-22T09:49:36.909Z,42.15
2022-10-22T09:52:26.245Z,42.28
2022-10-22T09:54:54.190Z,41.95
2022-10-22T09:57:22.740Z,41.74
2022-10-22T09:59:54.190Z,41.94
2022-10-22T10:02:38.088Z,41.82
2022-10-22T10:05:08.452Z,40.79
2022-10-22T10:07:37.145Z,40.51
2022-10-22T10:10:19.901Z,41.09
2022-10-22T10:12:57.446Z,41.69
2022-10-22T10:15:37.163Z,41.16
2022-10-22T10:18:08.431Z,40.79
2022-10-22T10:20:43.526Z,41.23
2022-10-22T10:23:30.548Z,41.26
2022-10-22T10:26:17.404Z,40.94
2022-10-22T10:29:12.749Z,41.10
2022-10-22T10:31:43.789Z,41.61
2022-10-22T10:34:37.998Z,41.38
2022-10-22T10:37:26.479Z,41.18
2022-10-22T10:40:13.240Z,41.40
2022-10-22T10:42:51.999Z,41.47
2022-10-22T10:45:32.452Z,41.39
2022-10-22T10:48:38.605Z,41.38
2022-10-22T10:51:18.438Z,41.64
2022-10-22T10:54:30.787Z,41.75
2022-10-22T10:57:32.852Z,42.25
2022-10-22T11:00:07.399Z,41.72
2022-10-22T11:02:50.587Z,41.46
2022-10-22T11:05:50.439Z,41.61
2022-10-22T11:08:32.698Z,41.55
2022-10-22T11:11:23.231Z,41.51
2022-10-22T11:13:57.553Z,41.62
2022-10-22T11:16:32.703Z,41.55
2022-10-22T11:19:50.389Z,41.15
2022-10-22T11:22:28.346Z,40.95
2022-10-22T11:25:19.421Z,40.88
2022-10-22T11:27:59.816Z,41.07
2022-10-22T11:30:36.563Z,41.38
2022-10-22T11:33:11.352Z,41.54
2022-10-22T11:35:42.364Z,41.35
2022-10-22T11:38:16.119Z,41.14
2022-10-22T11:40:52.447Z,41.33
2022-10-22T11:43:48.237Z,41.19
2022-10-22T11:46:16.251Z,41.31
2022-10-22T11:48:44.613Z,41.35
2022-10-22T11:51:39.265Z,41.38
2022-10-22T11:54:31.249Z,41.42
2022-10-22T11:57:26.460Z,41.73
2022-10-22T11:59:58.806Z,41.82
2022-10-22T12:02:40.981Z,41.83
2022-10-22T12:05:22.113Z,42.00
2022-10-22T12:08:16.608Z,42.17
2022-10-22T12:11:04.945Z,41.99
2022-10-22T12:14:09.776Z,42.11
2022-10-22T12:16:56.263Z,42.10
2022-10-22T12:19:26.962Z,42.33
2022-10-22T12:21:59.042Z,42.33
2022-10-22T12:24:32.139Z,42.35
2022-10-22T12:27:00.172Z,42.40
2022-10-22T12:29:28.647Z,42.49
2022-10-22T12:31:57.894Z,42.84
2022-10-22T12:34:25.690Z,43.38
2022-10-22T12:36:54.523Z,43.13
2022-10-22T12:39:26.717Z,43.01
2022-10-22T12:41:55.133Z,42.73
2022-10-22T12:44:22.877Z,43.00
2022-10-22T12:46:54.438Z,43.14
2022-10-22T12:49:41.360Z,43.30
2022-10-22T12:52:17.991Z,43.32
2022-10-22T12:54:52.604Z,43.51
2022-10-22T12:57:21.897Z,43.70
2022-10-22T12:59:51.935Z,44.03
2022-10-22T13:02:22.518Z,44.09
2022-10-22T13:05:09.477Z,44.30
2022-10-22T13:07:44.402Z,44.28
2022-10-22T13:10:20.118Z,44.46
2022-10-22T13:12:55.474Z,44.66
2022-10-22T13:15:32.150Z,44.94
2022-10-22T13:18:16.888Z,44.94
2022-10-22T13:20:52.158Z,44.80
2022-10-22T13:23:22.903Z,44.37
2022-10-22T13:26:14.361Z,44.10
2022-10-22T13:28:43.646Z,43.90
2022-10-22T13:31:17.530Z,43.97
2022-10-22T13:33:51.393Z,43.93
2022-10-22T13:36:19.600Z,43.83
2022-10-22T13:38:47.730Z,43.71
2022-10-22T13:41:33.386Z,43.53
2022-10-22T13:44:01.127Z,43.47
2022-10-22T13:46:29.501Z,43.71
2022-10-22T13:49:00.099Z,43.97
2022-10-22T13:51:34.955Z,43.86
2022-10-22T13:54:06.943Z,43.83
2022-10-22T13:56:34.880Z,43.80
2022-10-22T13:59:02.919Z,43.72
2022-10-22T14:01:31.024Z,43.66
2022-10-22T14:04:02.011Z,43.41
2022-10-22T14:06:31.871Z,43.20
2022-10-22T14:09:04.499Z,43.40
2022-10-22T14:11:32.953Z,43.46
2022-10-22T14:14:03.525Z,43.48
2022-10-22T14:16:33.183Z,43.71
2022-10-22T14:19:02.655Z,43.61
2022-10-22T14:21:35.160Z,43.82
2022-10-22T14:24:04.482Z,43.95
2022-10-22T14:26:35.079Z,43.89
2022-10-22T14:29:09.416Z,44.14
2022-10-22T14:34:15.914Z,44.27
2022-10-22T14:36:44.370Z,44.48
2022-10-22T14:39:13.965Z,44.29
2022-10-22T14:41:42.504Z,44.08
2022-10-22T14:44:14.578Z,44.03
2022-10-22T14:46:44.425Z,44.04
2022-10-22T14:49:13.909Z,43.89
2022-10-22T14:51:42.130Z,43.93
2022-10-22T14:54:10.144Z,43.86
2022-10-22T14:59:10.768Z,43.45
2022-10-22T15:01:39.571Z,43.40
2022-10-22T15:04:07.572Z,43.38
2022-10-22T15:06:36.219Z,43.39
2022-10-22T15:09:04.123Z,43.38
2022-10-22T15:11:32.248Z,43.52
2022-10-22T15:14:00.077Z,43.55
2022-10-22T15:16:27.932Z,43.74
2022-10-22T15:18:57.161Z,43.82
2022-10-22T15:21:24.990Z,43.92
2022-10-22T15:23:55.591Z,44.02
2022-10-22T15:26:23.445Z,44.13
2022-10-22T15:28:51.556Z,44.23
2022-10-22T15:31:44.412Z,44.23
2022-10-22T15:34:13.494Z,44.21
2022-10-22T15:36:41.603Z,44.19
2022-10-22T15:39:10.411Z,44.12
2022-10-22T15:41:38.318Z,44.10
2022-10-22T15:44:06.388Z,43.96
2022-10-22T15:46:35.761Z,43.84
2022-10-22T15:49:03.679Z,43.77
2022-10-22T15:51:31.669Z,43.62
2022-10-22T15:53:59.630Z,43.59
2022-10-22T15:56:29.452Z,43.45
2022-10-22T15:59:03.989Z,43.31
2022-10-22T16:01:34.457Z,43.38
2022-10-22T16:04:03.194Z,43.44
2022-10-22T16:06:43.626Z,43.65
2022-10-22T16:09:17.464Z,43.83
2022-10-22T16:11:46.270Z,43.82
2022-10-22T16:14:16.311Z,43.86
2022-10-22T16:16:46.608Z,43.93
2022-10-22T16:19:15.393Z,43.99
2022-10-22T16:21:44.732Z,44.08
2022-10-22T16:24:13.458Z,44.01
2022-10-22T16:26:41.213Z,44.00
2022-10-22T16:29:11.423Z,44.00
2022-10-22T16:31:41.240Z,43.90
2022-10-22T16:34:09.080Z,43.97
2022-10-22T16:36:37.364Z,44.09
2022-10-22T16:39:06.047Z,44.19
2022-10-22T16:41:37.196Z,44.12
2022-10-22T16:44:07.781Z,44.19
2022-10-22T16:46:38.746Z,44.30
2022-10-22T16:49:07.634Z,44.30
2022-10-22T16:51:36.335Z,44.25
2022-10-22T16:54:06.938Z,44.33
2022-10-22T16:56:37.590Z,44.29
2022-10-22T16:59:06.721Z,44.31
2022-10-22T17:01:39.547Z,44.26
2022-10-22T17:04:09.284Z,44.34
2022-10-22T17:06:37.356Z,44.39
2022-10-22T17:09:05.447Z,44.39
2022-10-22T17:11:37.041Z,44.37
2022-10-22T17:14:06.956Z,44.35
2022-10-22T17:16:34.798Z,44.40
2022-10-22T17:19:03.848Z,44.49
2022-10-22T17:21:31.689Z,44.48
2022-10-22T17:23:59.729Z,44.81
2022-10-22T17:26:27.718Z,44.51
2022-10-22T17:28:56.065Z,44.41
2022-10-22T17:31:30.229Z,44.50
2022-10-22T17:33:59.892Z,44.40
2022-10-22T17:36:31.846Z,44.57
2022-10-22T17:39:06.112Z,44.63
2022-10-22T17:41:36.557Z,44.67
2022-10-22T17:44:07.056Z,44.82
2022-10-22T17:46:35.108Z,44.82
2022-10-22T17:49:06.974Z,45.03
2022-10-22T17:51:35.079Z,45.16
2022-10-22T17:54:05.971Z,45.30
2022-10-22T17:56:37.700Z,45.52
2022-10-22T17:59:06.483Z,45.71
2022-10-22T18:01:36.242Z,45.76
2022-10-22T18:04:06.888Z,45.92
2022-10-22T18:06:35.206Z,45.90
2022-10-22T18:09:18.336Z,46.13
2022-10-22T18:11:52.071Z,46.27
2022-10-22T18:14:22.738Z,46.43
2022-10-22T18:16:50.976Z,46.58
2022-10-22T18:19:23.211Z,46.82
2022-10-22T18:21:51.114Z,47.14
2022-10-22T18:24:19.205Z,47.52
2022-10-22T18:26:47.210Z,47.81
2022-10-22T18:29:18.181Z,48.13
2022-10-22T18:31:47.696Z,48.38
2022-10-22T18:34:18.914Z,48.53
2022-10-22T18:36:49.560Z,48.79
2022-10-22T18:39:18.269Z,49.12
2022-10-22T18:41:46.249Z,49.30
2022-10-22T18:44:15.426Z,49.98
2022-10-22T18:46:43.705Z,49.90
2022-10-22T18:49:16.645Z,50.09
2022-10-22T18:51:46.484Z,50.50
2022-10-22T18:54:23.527Z,50.86
2022-10-22T18:56:52.982Z,51.64
2022-10-22T18:59:23.297Z,52.57
2022-10-22T19:01:55.581Z,52.84
2022-10-22T19:04:23.436Z,53.99
2022-10-22T19:06:51.313Z,55.72
2022-10-22T19:09:19.507Z,56.90
2022-10-22T19:11:47.356Z,57.47
2022-10-22T19:14:19.540Z,58.45
2022-10-22T19:16:48.161Z,58.76
2022-10-22T19:19:18.937Z,59.33
2022-10-22T19:21:47.609Z,59.85
2022-10-22T19:24:18.046Z,60.56
2022-10-22T19:26:46.472Z,61.38
2022-10-22T19:29:17.524Z,61.88
2022-10-22T19:31:45.891Z,62.46
2022-10-22T19:34:14.407Z,62.49
2022-10-22T19:36:42.338Z,63.06
2022-10-22T19:39:10.397Z,63.17
2022-10-22T19:41:39.010Z,63.84
2022-10-22T19:44:06.921Z,64.45
2022-10-22T19:46:34.711Z,64.92
2022-10-22T19:49:03.483Z,65.23
2022-10-22T19:51:34.092Z,65.33
2022-10-22T19:54:08.218Z,65.73
2022-10-22T19:56:37.950Z,65.90
2022-10-22T19:59:05.989Z,66.30
2022-10-22T20:01:34.222Z,66.40
2022-10-22T20:04:02.377Z,66.14
2022-10-22T20:06:30.736Z,66.20
2022-10-22T20:08:59.448Z,66.24
2022-10-22T20:11:29.669Z,66.06
2022-10-22T20:13:58.627Z,66.39
2022-10-22T20:16:30.118Z,66.86
2022-10-22T20:19:03.858Z,66.92
2022-10-22T20:21:32.461Z,67.50
2022-10-22T20:24:00.940Z,67.28
2022-10-22T20:26:29.500Z,67.58
2022-10-22T20:28:58.628Z,67.91
2022-10-22T20:31:29.487Z,68.18
2022-10-22T20:33:59.711Z,68.37
2022-10-22T20:36:29.702Z,68.50
2022-10-22T20:39:04.070Z,68.47
2022-10-22T20:41:34.102Z,68.83
2022-10-22T20:44:02.087Z,68.75
2022-10-22T20:46:32.276Z,68.66
2022-10-22T20:49:06.609Z,68.46
2022-10-22T20:51:37.975Z,68.38
2022-10-22T20:54:07.485Z,68.21
2022-10-22T20:56:38.220Z,68.26
2022-10-22T20:59:08.194Z,68.48
2022-10-22T21:01:39.874Z,68.44
2022-10-22T21:04:08.299Z,68.34
2022-10-22T21:06:41.542Z,68.47
2022-10-22T21:09:11.419Z,68.30
2022-10-22T21:11:40.907Z,68.30
2022-10-22T21:14:10.721Z,68.72
2022-10-22T21:16:49.979Z,68.61
2022-10-22T21:19:22.970Z,68.42
2022-10-22T21:21:51.205Z,68.51
2022-10-22T21:24:19.834Z,68.72
2022-10-22T21:26:48.039Z,69.15
2022-10-22T21:29:15.948Z,69.37
2022-10-22T21:31:44.752Z,69.11
2022-10-22T21:34:13.841Z,69.01
2022-10-22T21:36:42.844Z,69.12
2022-10-22T21:39:12.441Z,69.23
2022-10-22T21:41:40.351Z,69.25
2022-10-22T21:44:08.171Z,69.18
2022-10-22T21:46:36.130Z,68.91
2022-10-22T21:49:04.494Z,68.75
2022-10-22T21:51:35.227Z,68.84
2022-10-22T21:54:03.228Z,68.80
2022-10-22T21:56:34.661Z,68.78
2022-10-22T21:59:04.627Z,68.93
2022-10-22T22:01:33.222Z,69.39
2022-10-22T22:04:01.652Z,69.53
2022-10-22T22:06:33.486Z,69.66
2022-10-22T22:09:04.354Z,69.81
2022-10-22T22:11:32.979Z,69.93
2022-10-22T22:14:01.201Z,69.87
2022-10-22T22:16:31.986Z,69.96
2022-10-22T22:19:02.133Z,70.16
2022-10-22T22:21:30.877Z,69.92
2022-10-22T22:23:59.360Z,69.81
2022-10-22T22:26:29.862Z,69.96
2022-10-22T22:29:00.032Z,70.01
2022-10-22T22:31:31.121Z,69.84
2022-10-22T22:34:10.422Z,69.51
2022-10-22T22:36:41.410Z,69.54
2022-10-22T22:39:13.492Z,69.35
2022-10-22T22:41:42.467Z,69.55
2022-10-22T22:44:10.595Z,69.67
2022-10-22T22:46:38.657Z,69.60
2022-10-22T22:49:07.234Z,69.64
2022-10-22T22:51:35.385Z,69.59
2022-10-22T22:54:03.514Z,69.58
2022-10-22T22:56:34.999Z,69.59
2022-10-22T22:59:05.169Z,69.65
2022-10-22T23:01:39.069Z,69.35
2022-10-22T23:04:11.212Z,69.36
2022-10-22T23:06:40.265Z,69.51
2022-10-22T23:09:11.331Z,69.59
2022-10-22T23:11:40.923Z,69.76
2022-10-22T23:14:12.512Z,69.73
2022-10-22T23:16:45.432Z,69.55
2022-10-22T23:19:15.575Z,69.53
2022-10-22T23:22:01.460Z,69.69
2022-10-22T23:24:29.754Z,69.63
2022-10-22T23:27:02.359Z,69.62
2022-10-22T23:29:32.665Z,69.62
2022-10-22T23:32:03.353Z,69.48
2022-10-22T23:34:31.862Z,69.60
2022-10-22T23:37:00.160Z,69.75
2022-10-22T23:39:28.972Z,69.80
2022-10-22T23:41:58.242Z,70.00
2022-10-22T23:44:26.142Z,70.05
2022-10-22T23:46:55.163Z,69.94
2022-10-22T23:49:23.091Z,69.77
2022-10-22T23:51:50.851Z,69.97
2022-10-22T23:54:19.305Z,70.04
2022-10-22T23:56:47.382Z,70.16
2022-10-22T23:59:16.104Z,70.31
